sensor_id;sensor_type;location;lat;lon;timestamp;temperature;humidity
2226;DHT22;1119;48.288;8.726;2022-10-16T00:01:59;15.10;99.90
2226;DHT22;1119;48.288;8.726;2022-10-16T00:04:28;15.10;99.90
2226;DHT22;1119;48.288;8.726;2022-10-16T00:06:56;15.10;99.90
2226;DHT22;1119;48.288;8.726;2022-10-16T00:09:23;15.00;99.90
2226;DHT22;1119;48.288;8.726;2022-10-16T00:11:50;15.10;99.90
2226;DHT22;1119;48.288;8.726;2022-10-16T00:14:18;15.10;99.90
2226;DHT22;1119;48.288;8.726;2022-10-16T00:16:45;15.70;99.90
2226;DHT22;1119;48.288;8.726;2022-10-16T00:19:12;15.00;99.90
2226;DHT22;1119;48.288;8.726;2022-10-16T00:21:41;15.20;99.90
2226;DHT22;1119;48.288;8.726;2022-10-16T00:24:10;15.00;99.90
2226;DHT22;1119;48.288;8.726;2022-10-16T00:26:38;14.90;99.90
2226;DHT22;1119;48.288;8.726;2022-10-16T00:29:06;14.90;99.90
2226;DHT22;1119;48.288;8.726;2022-10-16T00:31:34;15.10;99.90
2226;DHT22;1119;48.288;8.726;2022-10-16T00:34:20;15.00;99.90
2226;DHT22;1119;48.288;8.726;2022-10-16T00:36:49;15.10;99.90
2226;DHT22;1119;48.288;8.726;2022-10-16T00:39:16;15.00;99.90
2226;DHT22;1119;48.288;8.726;2022-10-16T00:41:45;15.00;99.90
2226;DHT22;1119;48.288;8.726;2022-10-16T00:44:47;15.40;99.90
2226;DHT22;1119;48.288;8.726;2022-10-16T00:47:28;15.00;99.90
2226;DHT22;1119;48.288;8.726;2022-10-16T00:50:36;15.00;99.90
2226;DHT22;1119;48.288;8.726;2022-10-16T00:53:06;15.20;99.90
2226;DHT22;1119;48.288;8.726;2022-10-16T00:55:33;15.00;99.90
2226;DHT22;1119;48.288;8.726;2022-10-16T01:51:04;14.30;99.90
2226;DHT22;1119;48.288;8.726;2022-10-16T01:59:39;14.80;99.90
2226;DHT22;1119;48.288;8.726;2022-10-16T03:27:40;14.90;99.90
2226;DHT22;1119;48.288;8.726;2022-10-16T03:36:41;14.50;99.90
2226;DHT22;1119;48.288;8.726;2022-10-16T03:48:00;15.00;99.90
2226;DHT22;1119;48.288;8.726;2022-10-16T03:50:34;14.90;99.90
2226;DHT22;1119;48.288;8.726;2022-10-16T03:53:01;14.80;99.90
2226;DHT22;1119;48.288;8.726;2022-10-16T03:59:18;14.80;99.90
2226;DHT22;1119;48.288;8.726;2022-10-16T04:01:45;15.00;99.90
2226;DHT22;1119;48.288;8.726;2022-10-16T04:04:14;15.00;99.90
2226;DHT22;1119;48.288;8.726;2022-10-16T04:06:41;14.90;99.90
2226;DHT22;1119;48.288;8.726;2022-10-16T04:09:08;15.00;99.90
2226;DHT22;1119;48.288;8.726;2022-10-16T04:11:36;15.00;99.90
2226;DHT22;1119;48.288;8.726;2022-10-16T04:14:03;15.00;99.90
2226;DHT22;1119;48.288;8.726;2022-10-16T04:16:30;15.00;99.90
2226;DHT22;1119;48.288;8.726;2022-10-16T04:18:58;15.00;99.90
2226;DHT22;1119;48.288;8.726;2022-10-16T04:21:55;15.70;99.90
2226;DHT22;1119;48.288;8.726;2022-10-16T04:24:22;15.00;99.90
2226;DHT22;1119;48.288;8.726;2022-10-16T04:26:55;15.00;99.90
2226;DHT22;1119;48.288;8.726;2022-10-16T04:29:22;15.00;99.90
2226;DHT22;1119;48.288;8.726;2022-10-16T04:31:49;15.10;99.90
2226;DHT22;1119;48.288;8.726;2022-10-16T04:34:17;15.10;99.90
2226;DHT22;1119;48.288;8.726;2022-10-16T04:40:12;15.10;99.90
2226;DHT22;1119;48.288;8.726;2022-10-16T04:42:40;15.20;99.90
2226;DHT22;1119;48.288;8.726;2022-10-16T04:45:08;15.10;99.90
2226;DHT22;1119;48.288;8.726;2022-10-16T04:47:36;15.20;99.90
2226;DHT22;1119;48.288;8.726;2022-10-16T04:50:03;15.20;99.90
2226;DHT22;1119;48.288;8.726;2022-10-16T04:52:31;15.20;99.90
2226;DHT22;1119;48.288;8.726;2022-10-16T04:55:25;15.20;99.90
2226;DHT22;1119;48.288;8.726;2022-10-16T04:57:52;15.20;99.90
2226;DHT22;1119;48.288;8.726;2022-10-16T05:00:20;15.20;99.90
2226;DHT22;1119;48.288;8.726;2022-10-16T05:02:50;15.10;99.90
2226;DHT22;1119;48.288;8.726;2022-10-16T05:05:17;15.10;99.90
2226;DHT22;1119;48.288;8.726;2022-10-16T05:07:45;15.10;99.90
2226;DHT22;1119;48.288;8.726;2022-10-16T05:10:12;15.00;99.90
2226;DHT22;1119;48.288;8.726;2022-10-16T05:12:41;15.00;99.90
2226;DHT22;1119;48.288;8.726;2022-10-16T05:15:09;15.00;99.90
2226;DHT22;1119;48.288;8.726;2022-10-16T05:17:37;14.90;99.90
2226;DHT22;1119;48.288;8.726;2022-10-16T05:20:05;14.90;99.90
2226;DHT22;1119;48.288;8.726;2022-10-16T05:22:33;14.90;99.90
2226;DHT22;1119;48.288;8.726;2022-10-16T05:25:03;14.80;99.90
2226;DHT22;1119;48.288;8.726;2022-10-16T05:27:31;14.80;99.90
2226;DHT22;1119;48.288;8.726;2022-10-16T05:30:00;14.80;99.90
2226;DHT22;1119;48.288;8.726;2022-10-16T05:32:27;14.80;99.90
2226;DHT22;1119;48.288;8.726;2022-10-16T05:34:55;14.80;99.90
2226;DHT22;1119;48.288;8.726;2022-10-16T05:37:22;14.80;99.90
2226;DHT22;1119;48.288;8.726;2022-10-16T05:39:49;14.80;99.90
2226;DHT22;1119;48.288;8.726;2022-10-16T05:42:47;14.80;99.90
2226;DHT22;1119;48.288;8.726;2022-10-16T05:45:16;14.80;99.90
2226;DHT22;1119;48.288;8.726;2022-10-16T05:47:43;14.80;99.90
2226;DHT22;1119;48.288;8.726;2022-10-16T05:50:10;14.80;99.90
2226;DHT22;1119;48.288;8.726;2022-10-16T05:52:38;14.80;99.90
2226;DHT22;1119;48.288;8.726;2022-10-16T05:55:05;14.90;99.90
2226;DHT22;1119;48.288;8.726;2022-10-16T05:57:33;14.90;99.90
2226;DHT22;1119;48.288;8.726;2022-10-16T06:00:00;14.80;99.90
2226;DHT22;1119;48.288;8.726;2022-10-16T06:02:39;14.80;99.90
2226;DHT22;1119;48.288;8.726;2022-10-16T06:05:07;14.90;99.90
2226;DHT22;1119;48.288;8.726;2022-10-16T06:07:35;14.90;99.90
2226;DHT22;1119;48.288;8.726;2022-10-16T06:10:03;14.90;99.90
2226;DHT22;1119;48.288;8.726;2022-10-16T06:12:31;14.90;99.90
2226;DHT22;1119;48.288;8.726;2022-10-16T06:14:59;14.90;99.90
2226;DHT22;1119;48.288;8.726;2022-10-16T06:17:26;14.90;99.90
2226;DHT22;1119;48.288;8.726;2022-10-16T06:19:54;15.00;99.90
2226;DHT22;1119;48.288;8.726;2022-10-16T06:22:21;15.00;99.90
2226;DHT22;1119;48.288;8.726;2022-10-16T06:24:49;15.10;99.90
2226;DHT22;1119;48.288;8.726;2022-10-16T06:27:16;15.10;99.90
2226;DHT22;1119;48.288;8.726;2022-10-16T06:29:43;15.10;99.90
2226;DHT22;1119;48.288;8.726;2022-10-16T06:32:10;15.10;99.90
2226;DHT22;1119;48.288;8.726;2022-10-16T06:34:37;15.10;99.90
2226;DHT22;1119;48.288;8.726;2022-10-16T06:37:08;15.10;99.90
2226;DHT22;1119;48.288;8.726;2022-10-16T06:39:35;15.20;99.90
2226;DHT22;1119;48.288;8.726;2022-10-16T06:42:02;15.20;99.90
2226;DHT22;1119;48.288;8.726;2022-10-16T06:44:35;15.20;99.90
2226;DHT22;1119;48.288;8.726;2022-10-16T06:47:02;15.30;99.90
2226;DHT22;1119;48.288;8.726;2022-10-16T06:49:29;15.40;99.90
2226;DHT22;1119;48.288;8.726;2022-10-16T06:51:56;15.40;99.90
2226;DHT22;1119;48.288;8.726;2022-10-16T06:54:25;15.50;99.90
2226;DHT22;1119;48.288;8.726;2022-10-16T06:56:52;15.50;99.90
2226;DHT22;1119;48.288;8.726;2022-10-16T06:59:20;15.50;99.90
2226;DHT22;1119;48.288;8.726;2022-10-16T07:01:47;15.50;99.90
2226;DHT22;1119;48.288;8.726;2022-10-16T07:04:15;15.40;99.90
2226;DHT22;1119;48.288;8.726;2022-10-16T07:06:42;16.00;99.90
2226;DHT22;1119;48.288;8.726;2022-10-16T07:09:10;15.50;99.90
2226;DHT22;1119;48.288;8.726;2022-10-16T07:11:40;15.50;99.90
2226;DHT22;1119;48.288;8.726;2022-10-16T07:14:15;15.60;99.90
2226;DHT22;1119;48.288;8.726;2022-10-16T07:16:43;15.60;99.90
2226;DHT22;1119;48.288;8.726;2022-10-16T07:19:10;15.80;99.90
2226;DHT22;1119;48.288;8.726;2022-10-16T07:21:40;15.70;99.90
2226;DHT22;1119;48.288;8.726;2022-10-16T07:24:13;15.70;99.90
2226;DHT22;1119;48.288;8.726;2022-10-16T07:26:44;15.70;99.90
2226;DHT22;1119;48.288;8.726;2022-10-16T07:29:13;15.70;99.90
2226;DHT22;1119;48.288;8.726;2022-10-16T07:31:42;15.80;99.90
2226;DHT22;1119;48.288;8.726;2022-10-16T07:34:10;15.80;99.90
2226;DHT22;1119;48.288;8.726;2022-10-16T07:36:38;15.90;99.90
2226;DHT22;1119;48.288;8.726;2022-10-16T07:39:05;15.90;99.90
2226;DHT22;1119;48.288;8.726;2022-10-16T07:41:32;16.00;99.90
2226;DHT22;1119;48.288;8.726;2022-10-16T07:44:04;16.00;99.90
2226;DHT22;1119;48.288;8.726;2022-10-16T07:46:32;16.20;99.90
2226;DHT22;1119;48.288;8.726;2022-10-16T07:49:02;16.30;99.90
2226;DHT22;1119;48.288;8.726;2022-10-16T07:51:29;16.30;99.90
2226;DHT22;1119;48.288;8.726;2022-10-16T07:53:57;16.40;99.90
2226;DHT22;1119;48.288;8.726;2022-10-16T07:56:24;16.50;99.90
2226;DHT22;1119;48.288;8.726;2022-10-16T07:58:52;16.50;99.90
2226;DHT22;1119;48.288;8.726;2022-10-16T08:01:21;16.60;99.90
2226;DHT22;1119;48.288;8.726;2022-10-16T08:03:49;16.60;99.90
2226;DHT22;1119;48.288;8.726;2022-10-16T08:06:19;16.60;99.90
2226;DHT22;1119;48.288;8.726;2022-10-16T08:08:48;16.70;99.90
2226;DHT22;1119;48.288;8.726;2022-10-16T08:11:15;16.70;99.90
2226;DHT22;1119;48.288;8.726;2022-10-16T08:13:43;16.80;99.90
2226;DHT22;1119;48.288;8.726;2022-10-16T08:16:10;16.80;99.90
2226;DHT22;1119;48.288;8.726;2022-10-16T08:18:40;16.90;99.90
2226;DHT22;1119;48.288;8.726;2022-10-16T08:21:12;16.90;99.90
2226;DHT22;1119;48.288;8.726;2022-10-16T08:23:40;16.90;99.90
2226;DHT22;1119;48.288;8.726;2022-10-16T08:26:08;17.00;99.90
2226;DHT22;1119;48.288;8.726;2022-10-16T08:28:36;17.00;99.90
2226;DHT22;1119;48.288;8.726;2022-10-16T08:31:08;17.00;99.90
2226;DHT22;1119;48.288;8.726;2022-10-16T08:33:36;17.00;99.90
2226;DHT22;1119;48.288;8.726;2022-10-16T08:36:06;17.00;99.90
2226;DHT22;1119;48.288;8.726;2022-10-16T08:38:34;17.00;99.90
2226;DHT22;1119;48.288;8.726;2022-10-16T08:41:20;17.10;99.90
2226;DHT22;1119;48.288;8.726;2022-10-16T08:47:19;17.40;99.90
2226;DHT22;1119;48.288;8.726;2022-10-16T08:49:56;17.50;99.90
2226;DHT22;1119;48.288;8.726;2022-10-16T08:52:29;17.60;99.90
2226;DHT22;1119;48.288;8.726;2022-10-16T08:54:59;17.70;99.90
2226;DHT22;1119;48.288;8.726;2022-10-16T08:57:27;17.80;99.90
2226;DHT22;1119;48.288;8.726;2022-10-16T08:59:59;17.80;99.90
2226;DHT22;1119;48.288;8.726;2022-10-16T09:02:32;17.90;99.90
2226;DHT22;1119;48.288;8.726;2022-10-16T09:05:21;18.10;99.90
2226;DHT22;1119;48.288;8.726;2022-10-16T09:08:03;18.20;99.90
2226;DHT22;1119;48.288;8.726;2022-10-16T09:10:41;18.20;99.90
2226;DHT22;1119;48.288;8.726;2022-10-16T09:13:18;18.20;99.90
2226;DHT22;1119;48.288;8.726;2022-10-16T09:15:54;18.30;99.90
2226;DHT22;1119;48.288;8.726;2022-10-16T09:18:29;18.30;99.90
2226;DHT22;1119;48.288;8.726;2022-10-16T09:21:05;18.40;99.90
2226;DHT22;1119;48.288;8.726;2022-10-16T09:23:38;18.40;99.90
2226;DHT22;1119;48.288;8.726;2022-10-16T09:26:09;18.50;99.90
2226;DHT22;1119;48.288;8.726;2022-10-16T09:28:38;18.60;99.90
2226;DHT22;1119;48.288;8.726;2022-10-16T09:31:10;18.70;99.90
2226;DHT22;1119;48.288;8.726;2022-10-16T09:33:44;18.50;99.90
2226;DHT22;1119;48.288;8.726;2022-10-16T09:36:14;18.50;99.90
2226;DHT22;1119;48.288;8.726;2022-10-16T09:38:43;18.40;99.90
2226;DHT22;1119;48.288;8.726;2022-10-16T09:41:16;18.40;99.90
2226;DHT22;1119;48.288;8.726;2022-10-16T09:43:48;18.30;99.90
2226;DHT22;1119;48.288;8.726;2022-10-16T09:46:26;18.20;99.90
2226;DHT22;1119;48.288;8.726;2022-10-16T09:48:57;18.20;99.90
2226;DHT22;1119;48.288;8.726;2022-10-16T09:51:27;18.10;99.90
2226;DHT22;1119;48.288;8.726;2022-10-16T09:53:59;18.10;99.90
2226;DHT22;1119;48.288;8.726;2022-10-16T09:56:28;18.10;99.90
2226;DHT22;1119;48.288;8.726;2022-10-16T09:59:00;18.10;99.90
2226;DHT22;1119;48.288;8.726;2022-10-16T10:01:31;18.10;99.90
2226;DHT22;1119;48.288;8.726;2022-10-16T10:04:03;18.10;99.90
2226;DHT22;1119;48.288;8.726;2022-10-16T10:06:33;18.10;99.90
2226;DHT22;1119;48.288;8.726;2022-10-16T10:09:13;18.20;99.90
2226;DHT22;1119;48.288;8.726;2022-10-16T10:11:52;18.20;99.90
2226;DHT22;1119;48.288;8.726;2022-10-16T10:14:30;18.30;99.90
2226;DHT22;1119;48.288;8.726;2022-10-16T10:17:14;18.40;99.90
2226;DHT22;1119;48.288;8.726;2022-10-16T10:19:48;18.60;99.90
2226;DHT22;1119;48.288;8.726;2022-10-16T10:22:27;18.60;99.90
2226;DHT22;1119;48.288;8.726;2022-10-16T10:25:01;18.80;99.90
2226;DHT22;1119;48.288;8.726;2022-10-16T10:27:47;19.00;99.90
2226;DHT22;1119;48.288;8.726;2022-10-16T10:30:31;19.20;99.90
2226;DHT22;1119;48.288;8.726;2022-10-16T10:33:14;19.80;99.80
2226;DHT22;1119;48.288;8.726;2022-10-16T10:35:56;19.80;98.40
2226;DHT22;1119;48.288;8.726;2022-10-16T10:38:36;20.10;97.80
2226;DHT22;1119;48.288;8.726;2022-10-16T10:44:35;20.40;96.20
2226;DHT22;1119;48.288;8.726;2022-10-16T10:47:15;20.50;95.30
2226;DHT22;1119;48.288;8.726;2022-10-16T10:49:55;20.30;95.30
2226;DHT22;1119;48.288;8.726;2022-10-16T10:52:45;20.30;95.50
2226;DHT22;1119;48.288;8.726;2022-10-16T10:55:25;20.20;94.80
2226;DHT22;1119;48.288;8.726;2022-10-16T11:01:32;20.40;93.90
2226;DHT22;1119;48.288;8.726;2022-10-16T11:04:30;20.70;93.90
2226;DHT22;1119;48.288;8.726;2022-10-16T11:09:34;20.80;99.90
2226;DHT22;1119;48.288;8.726;2022-10-16T11:12:07;21.50;99.90
2226;DHT22;1119;48.288;8.726;2022-10-16T11:14:44;21.50;98.60
2226;DHT22;1119;48.288;8.726;2022-10-16T11:17:18;21.70;99.50
2226;DHT22;1119;48.288;8.726;2022-10-16T11:19:53;21.70;99.90
2226;DHT22;1119;48.288;8.726;2022-10-16T11:22:25;22.10;99.90
2226;DHT22;1119;48.288;8.726;2022-10-16T11:25:02;22.30;99.90
2226;DHT22;1119;48.288;8.726;2022-10-16T11:27:37;22.10;99.90
2226;DHT22;1119;48.288;8.726;2022-10-16T11:30:14;22.00;99.90
2226;DHT22;1119;48.288;8.726;2022-10-16T11:32:52;22.00;99.90
2226;DHT22;1119;48.288;8.726;2022-10-16T11:35:30;22.10;99.90
2226;DHT22;1119;48.288;8.726;2022-10-16T11:38:09;22.50;99.90
2226;DHT22;1119;48.288;8.726;2022-10-16T11:40:42;22.60;98.90
2226;DHT22;1119;48.288;8.726;2022-10-16T11:43:24;22.60;96.20
2226;DHT22;1119;48.288;8.726;2022-10-16T11:45:56;22.60;96.20
2226;DHT22;1119;48.288;8.726;2022-10-16T11:48:30;22.60;96.30
2226;DHT22;1119;48.288;8.726;2022-10-16T11:51:06;22.40;95.50
2226;DHT22;1119;48.288;8.726;2022-10-16T11:53:44;22.60;95.90
2226;DHT22;1119;48.288;8.726;2022-10-16T11:56:16;22.70;95.20
2226;DHT22;1119;48.288;8.726;2022-10-16T11:58:52;22.70;94.80
2226;DHT22;1119;48.288;8.726;2022-10-16T12:01:28;22.70;94.90
2226;DHT22;1119;48.288;8.726;2022-10-16T12:04:14;22.80;95.20
2226;DHT22;1119;48.288;8.726;2022-10-16T12:06:46;22.80;95.00
2226;DHT22;1119;48.288;8.726;2022-10-16T12:09:21;22.80;94.90
2226;DHT22;1119;48.288;8.726;2022-10-16T12:11:51;23.00;95.40
2226;DHT22;1119;48.288;8.726;2022-10-16T12:14:23;22.80;93.30
2226;DHT22;1119;48.288;8.726;2022-10-16T12:17:04;22.90;86.70
2226;DHT22;1119;48.288;8.726;2022-10-16T12:19:58;23.00;89.40
2226;DHT22;1119;48.288;8.726;2022-10-16T12:22:29;23.10;87.10
2226;DHT22;1119;48.288;8.726;2022-10-16T12:24:57;23.30;85.80
2226;DHT22;1119;48.288;8.726;2022-10-16T12:27:28;23.30;85.00
2226;DHT22;1119;48.288;8.726;2022-10-16T12:29:58;23.30;84.20
2226;DHT22;1119;48.288;8.726;2022-10-16T12:32:31;23.30;83.10
2226;DHT22;1119;48.288;8.726;2022-10-16T12:35:01;23.30;83.40
2226;DHT22;1119;48.288;8.726;2022-10-16T12:37:33;23.30;83.30
2226;DHT22;1119;48.288;8.726;2022-10-16T12:40:12;23.30;83.90
2226;DHT22;1119;48.288;8.726;2022-10-16T12:42:41;23.30;84.00
2226;DHT22;1119;48.288;8.726;2022-10-16T12:45:24;23.30;84.70
2226;DHT22;1119;48.288;8.726;2022-10-16T12:47:55;23.30;83.20
2226;DHT22;1119;48.288;8.726;2022-10-16T12:50:30;23.40;83.20
2226;DHT22;1119;48.288;8.726;2022-10-16T12:53:00;23.50;83.20
2226;DHT22;1119;48.288;8.726;2022-10-16T12:55:34;23.50;83.20
2226;DHT22;1119;48.288;8.726;2022-10-16T12:58:42;23.40;81.60
2226;DHT22;1119;48.288;8.726;2022-10-16T13:01:25;23.50;83.40
2226;DHT22;1119;48.288;8.726;2022-10-16T13:04:16;23.40;83.20
2226;DHT22;1119;48.288;8.726;2022-10-16T13:07:30;23.40;82.80
2226;DHT22;1119;48.288;8.726;2022-10-16T13:10:17;23.30;82.00
2226;DHT22;1119;48.288;8.726;2022-10-16T13:13:07;23.30;82.90
2226;DHT22;1119;48.288;8.726;2022-10-16T13:15:49;23.20;80.30
2226;DHT22;1119;48.288;8.726;2022-10-16T13:18:26;23.10;81.40
2226;DHT22;1119;48.288;8.726;2022-10-16T13:21:11;23.00;80.60
2226;DHT22;1119;48.288;8.726;2022-10-16T13:23:49;22.90;81.00
2226;DHT22;1119;48.288;8.726;2022-10-16T13:26:26;23.00;82.30
2226;DHT22;1119;48.288;8.726;2022-10-16T13:28:59;23.00;82.50
2226;DHT22;1119;48.288;8.726;2022-10-16T13:31:28;23.00;79.90
2226;DHT22;1119;48.288;8.726;2022-10-16T13:33:57;23.00;80.60
2226;DHT22;1119;48.288;8.726;2022-10-16T13:36:29;23.10;81.40
2226;DHT22;1119;48.288;8.726;2022-10-16T13:39:07;22.60;81.10
2226;DHT22;1119;48.288;8.726;2022-10-16T13:41:39;23.00;80.50
2226;DHT22;1119;48.288;8.726;2022-10-16T13:44:13;23.00;81.10
2226;DHT22;1119;48.288;8.726;2022-10-16T13:46:41;23.00;80.20
2226;DHT22;1119;48.288;8.726;2022-10-16T13:49:13;22.90;80.40
2226;DHT22;1119;48.288;8.726;2022-10-16T13:51:54;22.80;80.20
2226;DHT22;1119;48.288;8.726;2022-10-16T13:54:22;22.90;81.20
2226;DHT22;1119;48.288;8.726;2022-10-16T13:56:49;22.80;80.60
2226;DHT22;1119;48.288;8.726;2022-10-16T13:59:25;22.70;80.30
2226;DHT22;1119;48.288;8.726;2022-10-16T14:01:56;22.70;80.30
2226;DHT22;1119;48.288;8.726;2022-10-16T14:04:31;22.70;79.70
2226;DHT22;1119;48.288;8.726;2022-10-16T14:07:00;22.70;80.30
2226;DHT22;1119;48.288;8.726;2022-10-16T14:09:29;22.70;80.90
2226;DHT22;1119;48.288;8.726;2022-10-16T14:11:59;22.80;80.80
2226;DHT22;1119;48.288;8.726;2022-10-16T14:14:34;22.80;80.50
2226;DHT22;1119;48.288;8.726;2022-10-16T14:17:06;22.90;81.50
2226;DHT22;1119;48.288;8.726;2022-10-16T14:19:33;22.80;81.10
2226;DHT22;1119;48.288;8.726;2022-10-16T14:22:02;22.80;81.10
2226;DHT22;1119;48.288;8.726;2022-10-16T14:24:32;22.80;81.80
2226;DHT22;1119;48.288;8.726;2022-10-16T14:27:00;22.90;82.10
2226;DHT22;1119;48.288;8.726;2022-10-16T14:29:29;22.90;81.80
2226;DHT22;1119;48.288;8.726;2022-10-16T14:31:59;22.90;81.70
2226;DHT22;1119;48.288;8.726;2022-10-16T14:34:29;22.80;81.70
2226;DHT22;1119;48.288;8.726;2022-10-16T14:36:59;22.80;82.40
2226;DHT22;1119;48.288;8.726;2022-10-16T14:39:33;22.80;82.00
2226;DHT22;1119;48.288;8.726;2022-10-16T14:42:00;22.70;83.00
2226;DHT22;1119;48.288;8.726;2022-10-16T14:44:31;22.70;83.40
2226;DHT22;1119;48.288;8.726;2022-10-16T14:47:07;22.70;82.80
2226;DHT22;1119;48.288;8.726;2022-10-16T14:49:35;22.60;83.50
2226;DHT22;1119;48.288;8.726;2022-10-16T14:52:08;22.60;84.00
2226;DHT22;1119;48.288;8.726;2022-10-16T14:54:37;22.70;84.50
2226;DHT22;1119;48.288;8.726;2022-10-16T14:57:05;22.60;84.70
2226;DHT22;1119;48.288;8.726;2022-10-16T14:59:36;22.60;85.20
2226;DHT22;1119;48.288;8.726;2022-10-16T15:02:18;22.60;86.10
2226;DHT22;1119;48.288;8.726;2022-10-16T15:04:49;22.60;85.80
2226;DHT22;1119;48.288;8.726;2022-10-16T15:07:18;22.60;86.90
2226;DHT22;1119;48.288;8.726;2022-10-16T15:09:45;22.60;86.20
2226;DHT22;1119;48.288;8.726;2022-10-16T15:12:13;22.60;86.40
2226;DHT22;1119;48.288;8.726;2022-10-16T15:14:40;22.60;86.80
2226;DHT22;1119;48.288;8.726;2022-10-16T15:17:08;22.60;87.30
2226;DHT22;1119;48.288;8.726;2022-10-16T15:19:37;22.60;86.60
2226;DHT22;1119;48.288;8.726;2022-10-16T15:22:04;22.50;85.60
2226;DHT22;1119;48.288;8.726;2022-10-16T15:24:33;22.40;85.80
2226;DHT22;1119;48.288;8.726;2022-10-16T15:27:00;22.40;86.70
2226;DHT22;1119;48.288;8.726;2022-10-16T15:29:28;22.40;86.80
2226;DHT22;1119;48.288;8.726;2022-10-16T15:31:55;22.30;87.30
2226;DHT22;1119;48.288;8.726;2022-10-16T15:34:22;22.30;87.70
2226;DHT22;1119;48.288;8.726;2022-10-16T15:36:49;22.30;87.60
2226;DHT22;1119;48.288;8.726;2022-10-16T15:39:18;22.20;88.60
2226;DHT22;1119;48.288;8.726;2022-10-16T15:41:48;22.20;88.70
2226;DHT22;1119;48.288;8.726;2022-10-16T15:44:16;22.10;89.50
2226;DHT22;1119;48.288;8.726;2022-10-16T15:46:43;22.10;90.20
2226;DHT22;1119;48.288;8.726;2022-10-16T15:49:11;22.00;90.70
2226;DHT22;1119;48.288;8.726;2022-10-16T15:51:39;22.00;91.30
2226;DHT22;1119;48.288;8.726;2022-10-16T15:54:08;21.90;91.80
2226;DHT22;1119;48.288;8.726;2022-10-16T15:56:35;21.70;92.20
2226;DHT22;1119;48.288;8.726;2022-10-16T15:59:04;21.50;92.50
2226;DHT22;1119;48.288;8.726;2022-10-16T16:01:32;21.40;92.80
2226;DHT22;1119;48.288;8.726;2022-10-16T16:04:00;21.30;93.00
2226;DHT22;1119;48.288;8.726;2022-10-16T16:06:27;21.30;93.30
2226;DHT22;1119;48.288;8.726;2022-10-16T16:08:55;21.30;93.20
2226;DHT22;1119;48.288;8.726;2022-10-16T16:11:22;21.30;93.30
2226;DHT22;1119;48.288;8.726;2022-10-16T16:13:49;21.30;93.50
2226;DHT22;1119;48.288;8.726;2022-10-16T16:16:19;21.20;93.50
2226;DHT22;1119;48.288;8.726;2022-10-16T16:18:47;21.20;93.70
2226;DHT22;1119;48.288;8.726;2022-10-16T16:21:19;21.20;94.10
2226;DHT22;1119;48.288;8.726;2022-10-16T16:23:46;21.20;94.20
2226;DHT22;1119;48.288;8.726;2022-10-16T16:26:15;21.10;94.20
2226;DHT22;1119;48.288;8.726;2022-10-16T16:28:49;21.10;93.90
2226;DHT22;1119;48.288;8.726;2022-10-16T16:31:18;21.00;94.10
2226;DHT22;1119;48.288;8.726;2022-10-16T16:33:45;20.90;94.00
2226;DHT22;1119;48.288;8.726;2022-10-16T16:36:12;20.90;94.10
2226;DHT22;1119;48.288;8.726;2022-10-16T16:38:39;20.80;94.10
2226;DHT22;1119;48.288;8.726;2022-10-16T16:41:13;20.70;94.20
2226;DHT22;1119;48.288;8.726;2022-10-16T16:43:41;21.30;94.60
2226;DHT22;1119;48.288;8.726;2022-10-16T16:46:09;20.70;94.50
2226;DHT22;1119;48.288;8.726;2022-10-16T16:48:38;20.60;94.70
2226;DHT22;1119;48.288;8.726;2022-10-16T16:51:06;20.50;94.90
2226;DHT22;1119;48.288;8.726;2022-10-16T16:53:35;20.50;95.50
2226;DHT22;1119;48.288;8.726;2022-10-16T16:56:03;20.40;95.40
2226;DHT22;1119;48.288;8.726;2022-10-16T16:58:32;20.30;95.60
2226;DHT22;1119;48.288;8.726;2022-10-16T17:01:00;20.20;96.00
2226;DHT22;1119;48.288;8.726;2022-10-16T17:03:28;20.10;96.10
2226;DHT22;1119;48.288;8.726;2022-10-16T17:06:00;20.10;96.60
2226;DHT22;1119;48.288;8.726;2022-10-16T17:08:29;20.00;96.60
2226;DHT22;1119;48.288;8.726;2022-10-16T17:10:57;19.90;96.60
2226;DHT22;1119;48.288;8.726;2022-10-16T17:13:26;19.80;96.80
2226;DHT22;1119;48.288;8.726;2022-10-16T17:15:54;19.70;96.90
2226;DHT22;1119;48.288;8.726;2022-10-16T17:18:23;19.60;97.10
2226;DHT22;1119;48.288;8.726;2022-10-16T17:20:51;19.40;97.30
2226;DHT22;1119;48.288;8.726;2022-10-16T17:23:19;19.40;97.70
2226;DHT22;1119;48.288;8.726;2022-10-16T17:25:47;19.20;97.80
2226;DHT22;1119;48.288;8.726;2022-10-16T17:28:14;19.20;97.90
2226;DHT22;1119;48.288;8.726;2022-10-16T17:30:42;19.10;97.80
2226;DHT22;1119;48.288;8.726;2022-10-16T17:33:11;19.00;97.80
2226;DHT22;1119;48.288;8.726;2022-10-16T17:35:40;18.90;98.10
2226;DHT22;1119;48.288;8.726;2022-10-16T17:38:09;18.90;98.10
2226;DHT22;1119;48.288;8.726;2022-10-16T17:40:39;18.80;98.10
2226;DHT22;1119;48.288;8.726;2022-10-16T17:43:06;18.80;98.30
2226;DHT22;1119;48.288;8.726;2022-10-16T17:45:36;18.70;98.70
2226;DHT22;1119;48.288;8.726;2022-10-16T17:48:05;18.60;98.70
2226;DHT22;1119;48.288;8.726;2022-10-16T17:50:33;18.60;99.00
2226;DHT22;1119;48.288;8.726;2022-10-16T17:53:00;18.70;99.30
2226;DHT22;1119;48.288;8.726;2022-10-16T17:55:27;18.50;99.40
2226;DHT22;1119;48.288;8.726;2022-10-16T17:57:56;18.40;99.50
2226;DHT22;1119;48.288;8.726;2022-10-16T18:00:23;18.30;99.70
2226;DHT22;1119;48.288;8.726;2022-10-16T18:02:51;18.70;99.90
2226;DHT22;1119;48.288;8.726;2022-10-16T18:05:18;18.20;99.80
2226;DHT22;1119;48.288;8.726;2022-10-16T18:07:45;18.20;99.90
2226;DHT22;1119;48.288;8.726;2022-10-16T18:10:12;18.20;99.90
2226;DHT22;1119;48.288;8.726;2022-10-16T18:12:39;18.20;99.90
2226;DHT22;1119;48.288;8.726;2022-10-16T18:15:09;18.20;99.90
2226;DHT22;1119;48.288;8.726;2022-10-16T18:17:37;18.10;99.90
2226;DHT22;1119;48.288;8.726;2022-10-16T18:20:05;18.20;99.80
2226;DHT22;1119;48.288;8.726;2022-10-16T18:22:33;18.10;99.70
2226;DHT22;1119;48.288;8.726;2022-10-16T18:25:02;18.10;99.90
2226;DHT22;1119;48.288;8.726;2022-10-16T18:27:30;18.10;99.60
2226;DHT22;1119;48.288;8.726;2022-10-16T18:29:58;18.10;99.60
2226;DHT22;1119;48.288;8.726;2022-10-16T18:32:27;18.10;99.60
2226;DHT22;1119;48.288;8.726;2022-10-16T18:34:54;18.20;99.70
2226;DHT22;1119;48.288;8.726;2022-10-16T18:37:21;18.10;99.70
2226;DHT22;1119;48.288;8.726;2022-10-16T18:39:49;18.00;99.70
2226;DHT22;1119;48.288;8.726;2022-10-16T18:42:17;18.00;99.70
2226;DHT22;1119;48.288;8.726;2022-10-16T18:44:44;17.70;99.50
2226;DHT22;1119;48.288;8.726;2022-10-16T18:47:11;17.90;99.60
2226;DHT22;1119;48.288;8.726;2022-10-16T18:49:40;17.90;99.90
2226;DHT22;1119;48.288;8.726;2022-10-16T18:52:09;17.90;99.90
2226;DHT22;1119;48.288;8.726;2022-10-16T18:54:36;17.80;99.90
2226;DHT22;1119;48.288;8.726;2022-10-16T18:57:03;17.90;99.90
2226;DHT22;1119;48.288;8.726;2022-10-16T18:59:31;17.80;99.90
2226;DHT22;1119;48.288;8.726;2022-10-16T19:01:58;17.80;99.90
2226;DHT22;1119;48.288;8.726;2022-10-16T19:04:25;17.80;99.90
2226;DHT22;1119;48.288;8.726;2022-10-16T19:06:54;17.70;99.90
2226;DHT22;1119;48.288;8.726;2022-10-16T19:09:22;17.70;99.90
2226;DHT22;1119;48.288;8.726;2022-10-16T19:11:50;17.60;99.90
2226;DHT22;1119;48.288;8.726;2022-10-16T19:14:17;17.60;99.90
2226;DHT22;1119;48.288;8.726;2022-10-16T19:16:45;17.90;99.90
2226;DHT22;1119;48.288;8.726;2022-10-16T19:19:15;17.50;99.90
2226;DHT22;1119;48.288;8.726;2022-10-16T19:21:44;17.40;99.90
2226;DHT22;1119;48.288;8.726;2022-10-16T19:24:14;17.30;99.90
2226;DHT22;1119;48.288;8.726;2022-10-16T19:26:42;17.30;99.90
2226;DHT22;1119;48.288;8.726;2022-10-16T19:29:10;17.20;99.90